sensor_id;sensor_type;location;lat;lon;timestamp;P1;durP1;ratioP1;P2;durP2;ratioP2
46505;SDS011;32220;49.808;9.968;2023-05-02T00:02:04;7.33;;;5.43;;
46505;SDS011;32220;49.808;9.968;2023-05-02T00:04:32;5.30;;;4.80;;
46505;SDS011;32220;49.808;9.968;2023-05-02T00:06:59;5.50;;;5.00;;
46505;SDS011;32220;49.808;9.968;2023-05-02T00:09:27;5.97;;;5.20;;
46505;SDS011;32220;49.808;9.968;2023-05-02T00:11:55;5.43;;;4.93;;
46505;SDS011;32220;49.808;9.968;2023-05-02T00:14:23;6.23;;;5.40;;
46505;SDS011;32220;49.808;9.968;2023-05-02T00:16:52;6.10;;;4.90;;
46505;SDS011;32220;49.808;9.968;2023-05-02T00:19:20;5.70;;;5.10;;
46505;SDS011;32220;49.808;9.968;2023-05-02T00:21:47;5.63;;;5.13;;
46505;SDS011;32220;49.808;9.968;2023-05-02T00:24:16;5.83;;;5.10;;
46505;SDS011;32220;49.808;9.968;2023-05-02T00:26:44;5.93;;;5.40;;
46505;SDS011;32220;49.808;9.968;2023-05-02T00:29:11;4.77;;;4.37;;
46505;SDS011;32220;49.808;9.968;2023-05-02T00:31:39;5.17;;;4.67;;
46505;SDS011;32220;49.808;9.968;2023-05-02T00:34:08;5.27;;;4.77;;
46505;SDS011;32220;49.808;9.968;2023-05-02T00:36:36;4.70;;;4.30;;
46505;SDS011;32220;49.808;9.968;2023-05-02T00:39:04;5.73;;;4.57;;
46505;SDS011;32220;49.808;9.968;2023-05-02T00:41:32;5.00;;;4.50;;
46505;SDS011;32220;49.808;9.968;2023-05-02T00:43:59;5.47;;;4.90;;
46505;SDS011;32220;49.808;9.968;2023-05-02T00:46:27;5.13;;;4.63;;
46505;SDS011;32220;49.808;9.968;2023-05-02T00:48:56;5.90;;;5.30;;
46505;SDS011;32220;49.808;9.968;2023-05-02T00:51:25;6.10;;;5.57;;
46505;SDS011;32220;49.808;9.968;2023-05-02T00:53:53;5.20;;;4.50;;
46505;SDS011;32220;49.808;9.968;2023-05-02T00:56:22;5.37;;;4.87;;
46505;SDS011;32220;49.808;9.968;2023-05-02T00:58:50;6.67;;;5.60;;
46505;SDS011;32220;49.808;9.968;2023-05-02T01:01:25;6.00;;;5.40;;
46505;SDS011;32220;49.808;9.968;2023-05-02T01:04:05;6.47;;;5.80;;
46505;SDS011;32220;49.808;9.968;2023-05-02T01:06:45;6.70;;;5.77;;
46505;SDS011;32220;49.808;9.968;2023-05-02T01:09:21;5.57;;;5.07;;
46505;SDS011;32220;49.808;9.968;2023-05-02T01:12:15;6.50;;;5.50;;
46505;SDS011;32220;49.808;9.968;2023-05-02T01:14:53;6.27;;;5.50;;
46505;SDS011;32220;49.808;9.968;2023-05-02T01:17:23;6.20;;;5.60;;
46505;SDS011;32220;49.808;9.968;2023-05-02T01:19:55;5.23;;;4.73;;
46505;SDS011;32220;49.808;9.968;2023-05-02T01:22:27;5.87;;;5.33;;
46505;SDS011;32220;49.808;9.968;2023-05-02T01:24:58;6.77;;;6.10;;
46505;SDS011;32220;49.808;9.968;2023-05-02T01:27:33;7.10;;;6.30;;
46505;SDS011;32220;49.808;9.968;2023-05-02T01:30:08;6.10;;;5.50;;
46505;SDS011;32220;49.808;9.968;2023-05-02T01:32:38;7.07;;;5.37;;
46505;SDS011;32220;49.808;9.968;2023-05-02T01:35:07;6.17;;;5.50;;
46505;SDS011;32220;49.808;9.968;2023-05-02T01:37:37;5.30;;;4.80;;
46505;SDS011;32220;49.808;9.968;2023-05-02T01:40:07;5.17;;;4.70;;
46505;SDS011;32220;49.808;9.968;2023-05-02T01:42:36;4.93;;;4.47;;
46505;SDS011;32220;49.808;9.968;2023-05-02T01:45:09;8.23;;;5.83;;
46505;SDS011;32220;49.808;9.968;2023-05-02T01:47:39;5.70;;;5.20;;
46505;SDS011;32220;49.808;9.968;2023-05-02T01:50:10;5.27;;;4.77;;
46505;SDS011;32220;49.808;9.968;2023-05-02T01:52:41;5.63;;;4.90;;
46505;SDS011;32220;49.808;9.968;2023-05-02T01:55:12;6.33;;;4.97;;
46505;SDS011;32220;49.808;9.968;2023-05-02T01:57:42;5.30;;;4.80;;
46505;SDS011;32220;49.808;9.968;2023-05-02T02:00:14;5.07;;;4.60;;
46505;SDS011;32220;49.808;9.968;2023-05-02T02:02:44;5.83;;;4.93;;
46505;SDS011;32220;49.808;9.968;2023-05-02T02:05:13;6.47;;;5.97;;
46505;SDS011;32220;49.808;9.968;2023-05-02T02:07:43;6.23;;;5.53;;
46505;SDS011;32220;49.808;9.968;2023-05-02T02:10:11;6.00;;;5.40;;
46505;SDS011;32220;49.808;9.968;2023-05-02T02:12:41;6.20;;;5.60;;
46505;SDS011;32220;49.808;9.968;2023-05-02T02:15:12;7.17;;;6.47;;
46505;SDS011;32220;49.808;9.968;2023-05-02T02:17:47;6.17;;;5.30;;
46505;SDS011;32220;49.808;9.968;2023-05-02T02:20:21;6.10;;;5.50;;
46505;SDS011;32220;49.808;9.968;2023-05-02T02:22:48;5.40;;;4.90;;
46505;SDS011;32220;49.808;9.968;2023-05-02T02:25:17;5.50;;;5.00;;
46505;SDS011;32220;49.808;9.968;2023-05-02T02:27:46;6.27;;;5.67;;
46505;SDS011;32220;49.808;9.968;2023-05-02T02:30:14;5.83;;;5.33;;
46505;SDS011;32220;49.808;9.968;2023-05-02T02:32:44;6.13;;;5.53;;
46505;SDS011;32220;49.808;9.968;2023-05-02T02:35:11;5.63;;;4.70;;
46505;SDS011;32220;49.808;9.968;2023-05-02T02:37:40;5.80;;;5.07;;
46505;SDS011;32220;49.808;9.968;2023-05-02T02:40:15;5.90;;;5.20;;
46505;SDS011;32220;49.808;9.968;2023-05-02T02:42:49;6.13;;;5.43;;
46505;SDS011;32220;49.808;9.968;2023-05-02T02:45:27;6.53;;;5.37;;
46505;SDS011;32220;49.808;9.968;2023-05-02T02:48:05;6.03;;;5.47;;
46505;SDS011;32220;49.808;9.968;2023-05-02T02:50:47;5.47;;;4.97;;
46505;SDS011;32220;49.808;9.968;2023-05-02T02:53:26;5.63;;;5.03;;
46505;SDS011;32220;49.808;9.968;2023-05-02T02:56:02;5.73;;;5.23;;
46505;SDS011;32220;49.808;9.968;2023-05-02T02:58:36;6.47;;;5.87;;
46505;SDS011;32220;49.808;9.968;2023-05-02T03:01:14;5.40;;;4.90;;
46505;SDS011;32220;49.808;9.968;2023-05-02T03:03:46;5.10;;;4.70;;
46505;SDS011;32220;49.808;9.968;2023-05-02T03:06:15;4.80;;;4.40;;
46505;SDS011;32220;49.808;9.968;2023-05-02T03:08:43;4.63;;;4.23;;
46505;SDS011;32220;49.808;9.968;2023-05-02T03:11:16;4.93;;;4.37;;
46505;SDS011;32220;49.808;9.968;2023-05-02T03:13:44;4.43;;;4.03;;
46505;SDS011;32220;49.808;9.968;2023-05-02T03:16:28;5.60;;;4.50;;
46505;SDS011;32220;49.808;9.968;2023-05-02T03:19:02;4.60;;;3.90;;
46505;SDS011;32220;49.808;9.968;2023-05-02T03:21:30;4.47;;;4.07;;
46505;SDS011;32220;49.808;9.968;2023-05-02T03:24:04;5.07;;;4.23;;
46505;SDS011;32220;49.808;9.968;2023-05-02T03:26:33;4.50;;;4.10;;
46505;SDS011;32220;49.808;9.968;2023-05-02T03:29:00;5.00;;;4.53;;
46505;SDS011;32220;49.808;9.968;2023-05-02T03:31:33;3.77;;;3.47;;
46505;SDS011;32220;49.808;9.968;2023-05-02T03:34:03;6.27;;;4.23;;
46505;SDS011;32220;49.808;9.968;2023-05-02T03:36:30;4.40;;;4.00;;
46505;SDS011;32220;49.808;9.968;2023-05-02T03:38:58;4.40;;;4.00;;
46505;SDS011;32220;49.808;9.968;2023-05-02T03:41:26;3.93;;;3.53;;
46505;SDS011;32220;49.808;9.968;2023-05-02T03:44:01;3.67;;;3.37;;
46505;SDS011;32220;49.808;9.968;2023-05-02T03:46:29;3.93;;;3.63;;
46505;SDS011;32220;49.808;9.968;2023-05-02T03:48:57;5.80;;;4.90;;
46505;SDS011;32220;49.808;9.968;2023-05-02T03:51:26;4.00;;;3.67;;
46505;SDS011;32220;49.808;9.968;2023-05-02T03:53:56;4.37;;;3.97;;
46505;SDS011;32220;49.808;9.968;2023-05-02T03:56:25;4.63;;;4.23;;
46505;SDS011;32220;49.808;9.968;2023-05-02T03:59:07;4.57;;;3.67;;
46505;SDS011;32220;49.808;9.968;2023-05-02T04:01:35;4.30;;;3.97;;
46505;SDS011;32220;49.808;9.968;2023-05-02T04:04:04;4.40;;;4.00;;
46505;SDS011;32220;49.808;9.968;2023-05-02T04:06:38;4.23;;;3.93;;
46505;SDS011;32220;49.808;9.968;2023-05-02T04:09:07;4.40;;;4.00;;
46505;SDS011;32220;49.808;9.968;2023-05-02T04:11:42;4.67;;;3.47;;
46505;SDS011;32220;49.808;9.968;2023-05-02T04:14:11;3.57;;;3.27;;
46505;SDS011;32220;49.808;9.968;2023-05-02T04:16:40;3.90;;;3.53;;
46505;SDS011;32220;49.808;9.968;2023-05-02T04:19:09;3.50;;;3.20;;
46505;SDS011;32220;49.808;9.968;2023-05-02T04:21:40;5.53;;;4.13;;
46505;SDS011;32220;49.808;9.968;2023-05-02T04:24:08;3.80;;;3.50;;
46505;SDS011;32220;49.808;9.968;2023-05-02T04:26:36;4.03;;;3.73;;
46505;SDS011;32220;49.808;9.968;2023-05-02T04:29:07;3.97;;;3.67;;
46505;SDS011;32220;49.808;9.968;2023-05-02T04:31:35;4.37;;;3.97;;
46505;SDS011;32220;49.808;9.968;2023-05-02T04:34:04;4.67;;;4.27;;
46505;SDS011;32220;49.808;9.968;2023-05-02T04:36:37;4.90;;;4.50;;
46505;SDS011;32220;49.808;9.968;2023-05-02T04:39:08;5.40;;;4.93;;
46505;SDS011;32220;49.808;9.968;2023-05-02T04:41:40;5.03;;;4.53;;
46505;SDS011;32220;49.808;9.968;2023-05-02T04:44:08;4.67;;;4.27;;
46505;SDS011;32220;49.808;9.968;2023-05-02T04:46:37;5.33;;;4.63;;
46505;SDS011;32220;49.808;9.968;2023-05-02T04:49:05;5.13;;;4.37;;
46505;SDS011;32220;49.808;9.968;2023-05-02T04:51:32;4.60;;;4.20;;
46505;SDS011;32220;49.808;9.968;2023-05-02T04:54:00;4.77;;;4.27;;
46505;SDS011;32220;49.808;9.968;2023-05-02T04:56:40;4.57;;;4.17;;
46505;SDS011;32220;49.808;9.968;2023-05-02T04:59:09;5.60;;;4.80;;
46505;SDS011;32220;49.808;9.968;2023-05-02T05:01:37;6.23;;;5.00;;
46505;SDS011;32220;49.808;9.968;2023-05-02T05:04:06;4.57;;;4.17;;
46505;SDS011;32220;49.808;9.968;2023-05-02T05:06:34;4.20;;;3.90;;
46505;SDS011;32220;49.808;9.968;2023-05-02T05:09:02;3.93;;;3.57;;
46505;SDS011;32220;49.808;9.968;2023-05-02T05:11:30;4.20;;;3.80;;
46505;SDS011;32220;49.808;9.968;2023-05-02T05:13:59;4.67;;;4.27;;
46505;SDS011;32220;49.808;9.968;2023-05-02T05:16:30;6.33;;;4.60;;
46505;SDS011;32220;49.808;9.968;2023-05-02T05:18:58;5.17;;;3.90;;
46505;SDS011;32220;49.808;9.968;2023-05-02T05:21:25;4.33;;;3.93;;
46505;SDS011;32220;49.808;9.968;2023-05-02T05:23:54;4.53;;;4.13;;
46505;SDS011;32220;49.808;9.968;2023-05-02T05:26:25;5.67;;;4.60;;
46505;SDS011;32220;49.808;9.968;2023-05-02T05:28:53;4.87;;;4.00;;
46505;SDS011;32220;49.808;9.968;2023-05-02T05:31:25;4.50;;;4.10;;
46505;SDS011;32220;49.808;9.968;2023-05-02T05:33:56;4.00;;;3.70;;
46505;SDS011;32220;49.808;9.968;2023-05-02T05:36:25;4.73;;;4.33;;
46505;SDS011;32220;49.808;9.968;2023-05-02T05:38:53;4.23;;;3.83;;
46505;SDS011;32220;49.808;9.968;2023-05-02T05:41:21;4.53;;;4.13;;
46505;SDS011;32220;49.808;9.968;2023-05-02T05:43:55;4.40;;;4.00;;
46505;SDS011;32220;49.808;9.968;2023-05-02T05:46:26;4.37;;;3.97;;
46505;SDS011;32220;49.808;9.968;2023-05-02T05:48:54;4.70;;;4.30;;
46505;SDS011;32220;49.808;9.968;2023-05-02T05:51:23;4.50;;;4.10;;
46505;SDS011;32220;49.808;9.968;2023-05-02T05:53:52;4.23;;;3.87;;
46505;SDS011;32220;49.808;9.968;2023-05-02T05:56:20;5.83;;;5.00;;
46505;SDS011;32220;49.808;9.968;2023-05-02T05:58:56;4.23;;;3.83;;
46505;SDS011;32220;49.808;9.968;2023-05-02T06:01:24;5.63;;;5.07;;
46505;SDS011;32220;49.808;9.968;2023-05-02T06:03:53;5.87;;;5.37;;
46505;SDS011;32220;49.808;9.968;2023-05-02T06:06:21;5.70;;;5.17;;
46505;SDS011;32220;49.808;9.968;2023-05-02T06:08:48;4.93;;;4.43;;
46505;SDS011;32220;49.808;9.968;2023-05-02T06:11:17;5.47;;;4.93;;
46505;SDS011;32220;49.808;9.968;2023-05-02T06:13:44;6.20;;;5.60;;
46505;SDS011;32220;49.808;9.968;2023-05-02T06:16:13;5.10;;;4.70;;
46505;SDS011;32220;49.808;9.968;2023-05-02T06:18:40;5.40;;;4.90;;
46505;SDS011;32220;49.808;9.968;2023-05-02T06:21:09;4.93;;;4.47;;
46505;SDS011;32220;49.808;9.968;2023-05-02T06:23:37;6.77;;;6.13;;
46505;SDS011;32220;49.808;9.968;2023-05-02T06:26:06;6.10;;;5.30;;
46505;SDS011;32220;49.808;9.968;2023-05-02T06:28:35;5.23;;;4.83;;
46505;SDS011;32220;49.808;9.968;2023-05-02T06:31:03;6.10;;;5.60;;
46505;SDS011;32220;49.808;9.968;2023-05-02T06:33:32;5.37;;;4.90;;
46505;SDS011;32220;49.808;9.968;2023-05-02T06:36:00;5.77;;;5.27;;
46505;SDS011;32220;49.808;9.968;2023-05-02T06:38:29;7.03;;;5.90;;
46505;SDS011;32220;49.808;9.968;2023-05-02T06:40:57;6.50;;;5.77;;
46505;SDS011;32220;49.808;9.968;2023-05-02T06:43:24;6.53;;;5.93;;
46505;SDS011;32220;49.808;9.968;2023-05-02T06:45:53;6.57;;;5.97;;
46505;SDS011;32220;49.808;9.968;2023-05-02T06:48:21;7.07;;;6.37;;
46505;SDS011;32220;49.808;9.968;2023-05-02T06:50:50;6.23;;;5.63;;
46505;SDS011;32220;49.808;9.968;2023-05-02T06:53:19;7.40;;;6.27;;
46505;SDS011;32220;49.808;9.968;2023-05-02T06:55:48;7.13;;;6.43;;
46505;SDS011;32220;49.808;9.968;2023-05-02T06:58:16;7.77;;;7.00;;
46505;SDS011;32220;49.808;9.968;2023-05-02T07:00:43;9.63;;;7.03;;
46505;SDS011;32220;49.808;9.968;2023-05-02T07:03:11;7.27;;;6.57;;
46505;SDS011;32220;49.808;9.968;2023-05-02T07:05:39;7.93;;;7.17;;
46505;SDS011;32220;49.808;9.968;2023-05-02T07:08:06;7.47;;;6.73;;
46505;SDS011;32220;49.808;9.968;2023-05-02T07:10:35;7.30;;;6.13;;
46505;SDS011;32220;49.808;9.968;2023-05-02T07:13:04;7.67;;;6.97;;
46505;SDS011;32220;49.808;9.968;2023-05-02T07:15:31;7.77;;;6.97;;
46505;SDS011;32220;49.808;9.968;2023-05-02T07:17:59;7.10;;;6.53;;
46505;SDS011;32220;49.808;9.968;2023-05-02T07:20:26;7.60;;;6.80;;
46505;SDS011;32220;49.808;9.968;2023-05-02T07:22:54;9.47;;;8.00;;
46505;SDS011;32220;49.808;9.968;2023-05-02T07:25:22;8.57;;;7.70;;
46505;SDS011;32220;49.808;9.968;2023-05-02T07:27:49;7.23;;;6.53;;
46505;SDS011;32220;49.808;9.968;2023-05-02T07:30:18;7.20;;;6.50;;
46505;SDS011;32220;49.808;9.968;2023-05-02T07:32:46;7.97;;;6.27;;
46505;SDS011;32220;49.808;9.968;2023-05-02T07:35:13;6.73;;;6.13;;
46505;SDS011;32220;49.808;9.968;2023-05-02T07:37:41;7.40;;;6.70;;
46505;SDS011;32220;49.808;9.968;2023-05-02T07:40:09;8.93;;;7.17;;
46505;SDS011;32220;49.808;9.968;2023-05-02T07:42:37;8.93;;;7.30;;
46505;SDS011;32220;49.808;9.968;2023-05-02T07:45:06;10.10;;;7.60;;
46505;SDS011;32220;49.808;9.968;2023-05-02T07:47:36;7.73;;;7.00;;
46505;SDS011;32220;49.808;9.968;2023-05-02T07:50:03;6.47;;;5.80;;
46505;SDS011;32220;49.808;9.968;2023-05-02T07:52:31;9.37;;;7.03;;
46505;SDS011;32220;49.808;9.968;2023-05-02T07:54:59;6.47;;;5.77;;
46505;SDS011;32220;49.808;9.968;2023-05-02T07:57:27;6.57;;;5.97;;
46505;SDS011;32220;49.808;9.968;2023-05-02T07:59:54;6.90;;;5.67;;
46505;SDS011;32220;49.808;9.968;2023-05-02T08:02:22;7.43;;;6.83;;
46505;SDS011;32220;49.808;9.968;2023-05-02T08:04:52;8.17;;;6.53;;
46505;SDS011;32220;49.808;9.968;2023-05-02T08:07:20;6.87;;;5.73;;
46505;SDS011;32220;49.808;9.968;2023-05-02T08:09:47;6.13;;;5.50;;
46505;SDS011;32220;49.808;9.968;2023-05-02T08:12:15;6.53;;;5.57;;
46505;SDS011;32220;49.808;9.968;2023-05-02T08:14:42;7.90;;;7.13;;
46505;SDS011;32220;49.808;9.968;2023-05-02T08:17:10;6.23;;;5.63;;
46505;SDS011;32220;49.808;9.968;2023-05-02T08:19:38;6.80;;;6.20;;
46505;SDS011;32220;49.808;9.968;2023-05-02T08:22:07;6.37;;;5.37;;
46505;SDS011;32220;49.808;9.968;2023-05-02T08:24:34;7.10;;;6.40;;
46505;SDS011;32220;49.808;9.968;2023-05-02T08:27:02;6.47;;;5.70;;
46505;SDS011;32220;49.808;9.968;2023-05-02T08:29:29;6.77;;;6.23;;
46505;SDS011;32220;49.808;9.968;2023-05-02T08:31:57;6.50;;;5.33;;
46505;SDS011;32220;49.808;9.968;2023-05-02T08:34:25;6.77;;;6.17;;
46505;SDS011;32220;49.808;9.968;2023-05-02T08:36:52;6.97;;;5.83;;
46505;SDS011;32220;49.808;9.968;2023-05-02T08:39:21;6.50;;;5.90;;
46505;SDS011;32220;49.808;9.968;2023-05-02T08:41:49;7.03;;;5.83;;
46505;SDS011;32220;49.808;9.968;2023-05-02T08:44:17;5.47;;;4.90;;
46505;SDS011;32220;49.808;9.968;2023-05-02T08:46:44;5.93;;;5.33;;
46505;SDS011;32220;49.808;9.968;2023-05-02T08:49:13;5.40;;;4.90;;
46505;SDS011;32220;49.808;9.968;2023-05-02T08:51:42;5.83;;;4.50;;
46505;SDS011;32220;49.808;9.968;2023-05-02T08:54:11;5.10;;;4.60;;
46505;SDS011;32220;49.808;9.968;2023-05-02T08:56:45;4.80;;;4.40;;
46505;SDS011;32220;49.808;9.968;2023-05-02T08:59:12;6.80;;;4.80;;
46505;SDS011;32220;49.808;9.968;2023-05-02T09:01:40;5.23;;;4.73;;
46505;SDS011;32220;49.808;9.968;2023-05-02T09:04:10;6.00;;;5.40;;
46505;SDS011;32220;49.808;9.968;2023-05-02T09:06:39;5.87;;;5.30;;
46505;SDS011;32220;49.808;9.968;2023-05-02T09:09:07;5.73;;;5.23;;
46505;SDS011;32220;49.808;9.968;2023-05-02T09:11:34;6.00;;;3.97;;
46505;SDS011;32220;49.808;9.968;2023-05-02T09:14:05;4.50;;;4.10;;
46505;SDS011;32220;49.808;9.968;2023-05-02T09:16:41;5.87;;;5.37;;
46505;SDS011;32220;49.808;9.968;2023-05-02T09:19:09;5.37;;;4.97;;
46505;SDS011;32220;49.808;9.968;2023-05-02T09:21:38;6.77;;;5.67;;
46505;SDS011;32220;49.808;9.968;2023-05-02T09:24:13;5.20;;;4.70;;
46505;SDS011;32220;49.808;9.968;2023-05-02T09:26:43;4.40;;;4.00;;
46505;SDS011;32220;49.808;9.968;2023-05-02T09:29:25;5.60;;;4.30;;
46505;SDS011;32220;49.808;9.968;2023-05-02T09:31:53;5.00;;;4.60;;
46505;SDS011;32220;49.808;9.968;2023-05-02T09:34:21;5.67;;;5.20;;
46505;SDS011;32220;49.808;9.968;2023-05-02T09:36:49;5.13;;;4.30;;
46505;SDS011;32220;49.808;9.968;2023-05-02T09:39:19;4.33;;;3.90;;
46505;SDS011;32220;49.808;9.968;2023-05-02T09:41:48;4.47;;;4.07;;
46505;SDS011;32220;49.808;9.968;2023-05-02T09:44:16;5.33;;;4.37;;
46505;SDS011;32220;49.808;9.968;2023-05-02T09:46:46;5.93;;;5.43;;
46505;SDS011;32220;49.808;9.968;2023-05-02T09:49:15;5.03;;;4.63;;
46505;SDS011;32220;49.808;9.968;2023-05-02T09:51:45;4.47;;;4.00;;
46505;SDS011;32220;49.808;9.968;2023-05-02T09:54:14;5.80;;;5.30;;
46505;SDS011;32220;49.808;9.968;2023-05-02T09:57:01;4.20;;;3.77;;
46505;SDS011;32220;49.808;9.968;2023-05-02T09:59:28;4.30;;;4.00;;
46505;SDS011;32220;49.808;9.968;2023-05-02T10:02:00;3.67;;;3.37;;
46505;SDS011;32220;49.808;9.968;2023-05-02T10:04:29;5.23;;;3.80;;
46505;SDS011;32220;49.808;9.968;2023-05-02T10:06:58;4.00;;;3.60;;
46505;SDS011;32220;49.808;9.968;2023-05-02T10:09:28;3.97;;;3.60;;
46505;SDS011;32220;49.808;9.968;2023-05-02T10:11:57;5.37;;;4.87;;
46505;SDS011;32220;49.808;9.968;2023-05-02T10:14:30;4.27;;;3.87;;
46505;SDS011;32220;49.808;9.968;2023-05-02T10:17:03;5.63;;;4.57;;
46505;SDS011;32220;49.808;9.968;2023-05-02T10:19:38;5.87;;;5.20;;
46505;SDS011;32220;49.808;9.968;2023-05-02T10:22:10;5.97;;;4.93;;
46505;SDS011;32220;49.808;9.968;2023-05-02T10:24:39;5.40;;;4.77;;
46505;SDS011;32220;49.808;9.968;2023-05-02T10:27:07;5.33;;;4.27;;
46505;SDS011;32220;49.808;9.968;2023-05-02T10:29:35;4.20;;;3.80;;
46505;SDS011;32220;49.808;9.968;2023-05-02T10:32:07;5.60;;;5.00;;
46505;SDS011;32220;49.808;9.968;2023-05-02T10:34:35;6.07;;;4.97;;
46505;SDS011;32220;49.808;9.968;2023-05-02T10:37:05;4.80;;;4.40;;
46505;SDS011;32220;49.808;9.968;2023-05-02T10:39:32;6.33;;;5.73;;
46505;SDS011;32220;49.808;9.968;2023-05-02T10:42:00;6.13;;;5.20;;
46505;SDS011;32220;49.808;9.968;2023-05-02T10:44:33;5.43;;;5.03;;
46505;SDS011;32220;49.808;9.968;2023-05-02T10:47:09;5.27;;;4.77;;
46505;SDS011;32220;49.808;9.968;2023-05-02T10:49:48;5.57;;;5.07;;
46505;SDS011;32220;49.808;9.968;2023-05-02T10:52:27;4.20;;;3.80;;
46505;SDS011;32220;49.808;9.968;2023-05-02T11:00:46;4.50;;;4.20;;
46505;SDS011;32220;49.808;9.968;2023-05-02T11:03:16;4.33;;;4.03;;
46505;SDS011;32220;49.808;9.968;2023-05-02T11:06:22;4.87;;;4.47;;
46505;SDS011;32220;49.808;9.968;2023-05-02T11:08:50;3.80;;;3.53;;
46505;SDS011;32220;49.808;9.968;2023-05-02T11:11:37;3.90;;;3.60;;
46505;SDS011;32220;49.808;9.968;2023-05-02T11:14:05;4.45;;;4.05;;
46505;SDS011;32220;49.808;9.968;2023-05-02T11:22:35;3.90;;;3.60;;
46505;SDS011;32220;49.808;9.968;2023-05-02T11:25:03;3.58;;;3.28;;
46505;SDS011;32220;49.808;9.968;2023-05-02T11:27:37;3.30;;;2.97;;
46505;SDS011;32220;49.808;9.968;2023-05-02T11:30:06;3.08;;;2.83;;
46505;SDS011;32220;49.808;9.968;2023-05-02T11:35:45;4.00;;;3.37;;
46505;SDS011;32220;49.808;9.968;2023-05-02T11:38:17;3.83;;;3.53;;
46505;SDS011;32220;49.808;9.968;2023-05-02T11:40:50;5.00;;;4.38;;
46505;SDS011;32220;49.808;9.968;2023-05-02T11:43:19;2.85;;;2.65;;
46505;SDS011;32220;49.808;9.968;2023-05-02T11:45:47;3.53;;;3.22;;
46505;SDS011;32220;49.808;9.968;2023-05-02T11:48:16;3.53;;;3.22;;
46505;SDS011;32220;49.808;9.968;2023-05-02T11:50:46;4.10;;;3.33;;
46505;SDS011;32220;49.808;9.968;2023-05-02T11:53:16;4.87;;;3.43;;
46505;SDS011;32220;49.808;9.968;2023-05-02T11:55:47;3.77;;;3.47;;
46505;SDS011;32220;49.808;9.968;2023-05-02T11:58:17;4.67;;;4.03;;
46505;SDS011;32220;49.808;9.968;2023-05-02T12:00:46;3.60;;;3.30;;
46505;SDS011;32220;49.808;9.968;2023-05-02T12:03:21;3.63;;;3.33;;
46505;SDS011;32220;49.808;9.968;2023-05-02T12:05:50;4.60;;;4.30;;
46505;SDS011;32220;49.808;9.968;2023-05-02T12:08:19;3.43;;;3.13;;
46505;SDS011;32220;49.808;9.968;2023-05-02T12:10:49;2.87;;;2.67;;
46505;SDS011;32220;49.808;9.968;2023-05-02T12:13:19;3.83;;;3.40;;
46505;SDS011;32220;49.808;9.968;2023-05-02T12:15:48;3.30;;;3.00;;
46505;SDS011;32220;49.808;9.968;2023-05-02T12:18:18;4.40;;;4.00;;
46505;SDS011;32220;49.808;9.968;2023-05-02T12:20:49;4.60;;;4.00;;
46505;SDS011;32220;49.808;9.968;2023-05-02T12:23:19;4.10;;;3.70;;
46505;SDS011;32220;49.808;9.968;2023-05-02T12:25:49;3.83;;;3.37;;
46505;SDS011;32220;49.808;9.968;2023-05-02T12:28:17;3.63;;;3.33;;
46505;SDS011;32220;49.808;9.968;2023-05-02T12:30:46;4.47;;;4.07;;
46505;SDS011;32220;49.808;9.968;2023-05-02T12:33:16;5.30;;;3.87;;
46505;SDS011;32220;49.808;9.968;2023-05-02T12:35:44;3.10;;;2.90;;
46505;SDS011;32220;49.808;9.968;2023-05-02T12:38:13;3.38;;;3.08;;
46505;SDS011;32220;49.808;9.968;2023-05-02T12:40:47;3.47;;;2.60;;
46505;SDS011;32220;49.808;9.968;2023-05-02T12:43:15;3.00;;;2.70;;
46505;SDS011;32220;49.808;9.968;2023-05-02T12:45:43;3.25;;;2.97;;
46505;SDS011;32220;49.808;9.968;2023-05-02T12:48:17;3.20;;;2.90;;
46505;SDS011;32220;49.808;9.968;2023-05-02T12:50:46;3.00;;;2.70;;
46505;SDS011;32220;49.808;9.968;2023-05-02T12:53:14;3.70;;;3.40;;
46505;SDS011;32220;49.808;9.968;2023-05-02T12:55:41;3.83;;;3.47;;
46505;SDS011;32220;49.808;9.968;2023-05-02T12:58:11;3.10;;;2.83;;
46505;SDS011;32220;49.808;9.968;2023-05-02T13:00:39;3.50;;;3.30;;
46505;SDS011;32220;49.808;9.968;2023-05-02T13:03:08;2.90;;;2.70;;
46505;SDS011;32220;49.808;9.968;2023-05-02T13:05:36;3.20;;;2.92;;
46505;SDS011;32220;49.808;9.968;2023-05-02T13:08:04;2.73;;;2.53;;
46505;SDS011;32220;49.808;9.968;2023-05-02T13:10:32;3.47;;;3.17;;
46505;SDS011;32220;49.808;9.968;2023-05-02T13:13:00;2.50;;;2.30;;
46505;SDS011;32220;49.808;9.968;2023-05-02T13:15:29;3.00;;;2.73;;
46505;SDS011;32220;49.808;9.968;2023-05-02T13:17:56;3.40;;;2.60;;
46505;SDS011;32220;49.808;9.968;2023-05-02T13:20:24;3.13;;;2.60;;
46505;SDS011;32220;49.808;9.968;2023-05-02T13:22:51;3.23;;;2.63;;
46505;SDS011;32220;49.808;9.968;2023-05-02T13:25:19;2.90;;;2.70;;
46505;SDS011;32220;49.808;9.968;2023-05-02T13:27:47;3.70;;;2.70;;
46505;SDS011;32220;49.808;9.968;2023-05-02T13:30:15;3.40;;;2.63;;
46505;SDS011;32220;49.808;9.968;2023-05-02T13:32:43;2.70;;;2.50;;
46505;SDS011;32220;49.808;9.968;2023-05-02T13:35:11;2.60;;;2.40;;
46505;SDS011;32220;49.808;9.968;2023-05-02T13:37:40;2.20;;;2.07;;
46505;SDS011;32220;49.808;9.968;2023-05-02T13:40:08;2.57;;;2.10;;
46505;SDS011;32220;49.808;9.968;2023-05-02T13:42:36;2.73;;;2.27;;
46505;SDS011;32220;49.808;9.968;2023-05-02T13:45:04;2.90;;;2.33;;
46505;SDS011;32220;49.808;9.968;2023-05-02T13:47:33;2.93;;;2.37;;
46505;SDS011;32220;49.808;9.968;2023-05-02T13:50:02;2.30;;;2.10;;
46505;SDS011;32220;49.808;9.968;2023-05-02T13:52:30;2.20;;;2.10;;
46505;SDS011;32220;49.808;9.968;2023-05-02T13:54:58;2.60;;;2.40;;
46505;SDS011;32220;49.808;9.968;2023-05-02T13:57:25;2.60;;;2.40;;
46505;SDS011;32220;49.808;9.968;2023-05-02T13:59:53;3.03;;;2.00;;
46505;SDS011;32220;49.808;9.968;2023-05-02T14:02:20;2.33;;;2.00;;
46505;SDS011;32220;49.808;9.968;2023-05-02T14:04:48;1.67;;;1.57;;
46505;SDS011;32220;49.808;9.968;2023-05-02T14:07:17;3.20;;;3.00;;
46505;SDS011;32220;49.808;9.968;2023-05-02T14:09:45;1.80;;;1.60;;
46505;SDS011;32220;49.808;9.968;2023-05-02T14:12:13;1.40;;;1.30;;
46505;SDS011;32220;49.808;9.968;2023-05-02T14:14:41;1.50;;;1.40;;
46505;SDS011;32220;49.808;9.968;2023-05-02T14:17:08;2.87;;;1.33;;
46505;SDS011;32220;49.808;9.968;2023-05-02T14:19:36;1.70;;;1.13;;
46505;SDS011;32220;49.808;9.968;2023-05-02T14:22:03;1.70;;;1.60;;
46505;SDS011;32220;49.808;9.968;2023-05-02T14:24:33;2.53;;;1.70;;
46505;SDS011;32220;49.808;9.968;2023-05-02T14:27:01;1.90;;;1.80;;
46505;SDS011;32220;49.808;9.968;2023-05-02T14:29:29;3.07;;;1.60;;
46505;SDS011;32220;49.808;9.968;2023-05-02T14:31:57;3.57;;;1.90;;
46505;SDS011;32220;49.808;9.968;2023-05-02T14:34:25;2.63;;;1.90;;
46505;SDS011;32220;49.808;9.968;2023-05-02T14:36:53;1.80;;;1.70;;
46505;SDS011;32220;49.808;9.968;2023-05-02T14:39:20;2.50;;;1.77;;
46505;SDS011;32220;49.808;9.968;2023-05-02T14:41:49;1.97;;;1.73;;
46505;SDS011;32220;49.808;9.968;2023-05-02T14:44:17;2.33;;;2.13;;
46505;SDS011;32220;49.808;9.968;2023-05-02T14:46:45;4.13;;;2.47;;
46505;SDS011;32220;49.808;9.968;2023-05-02T14:49:13;2.10;;;1.90;;
46505;SDS011;32220;49.808;9.968;2023-05-02T14:51:40;3.13;;;2.27;;
46505;SDS011;32220;49.808;9.968;2023-05-02T14:54:12;2.40;;;2.20;;
46505;SDS011;32220;49.808;9.968;2023-05-02T14:56:41;1.80;;;1.70;;
46505;SDS011;32220;49.808;9.968;2023-05-02T14:59:11;1.90;;;1.80;;
46505;SDS011;32220;49.808;9.968;2023-05-02T15:01:38;2.00;;;1.80;;
46505;SDS011;32220;49.808;9.968;2023-05-02T15:04:06;2.23;;;2.00;;
46505;SDS011;32220;49.808;9.968;2023-05-02T15:06:34;1.83;;;1.47;;
46505;SDS011;32220;49.808;9.968;2023-05-02T15:09:01;1.83;;;1.60;;
46505;SDS011;32220;49.808;9.968;2023-05-02T15:11:29;1.77;;;1.40;;
46505;SDS011;32220;49.808;9.968;2023-05-02T15:13:57;1.83;;;1.67;;
46505;SDS011;32220;49.808;9.968;2023-05-02T15:16:26;1.33;;;1.23;;
46505;SDS011;32220;49.808;9.968;2023-05-02T15:18:55;2.17;;;1.40;;